| time (UTC) | temp F | wind direction | speed MPH | gust MPH | rain 1hr in | rain 24hr in | rain mn in | humidity % | barometer mb |
| 20260508012053 | 45 | 47 | 0.0 | 0.0 | 0.00 | 0.00 | 0.00 | 85 | 1016.7 |
| 20260508010553 | 46 | 47 | 0.0 | 0.0 | 0.00 | 0.00 | 0.00 | 85 | 1016.7 |
| 20260508005052 | 47 | 47 | 0.0 | 0.0 | 0.00 | 0.00 | 0.00 | 84 | 1016.7 |
| 20260508003555 | 47 | 47 | 0.0 | 0.0 | 0.00 | 0.00 | 0.00 | 84 | 1016.8 |
| 20260508002048 | 48 | 47 | 0.0 | 0.0 | 0.00 | 0.00 | 0.00 | 84 | 1016.9 |
| 20260508000549 | 49 | 47 | 0.0 | 0.0 | 0.00 | 0.00 | 0.00 | 83 | 1017.0 |
| 20260507235053 | 50 | 47 | 0.0 | 0.0 | 0.00 | 0.00 | 0.00 | 84 | 1017.1 |
| 20260507233545 | 50 | 47 | 0.0 | 0.0 | 0.00 | 0.00 | 0.00 | 84 | 1017.2 |
| 20260507232046 | 51 | 47 | 0.0 | 0.0 | 0.00 | 0.00 | 0.00 | 84 | 1017.3 |
| 20260507230548 | 51 | 47 | 0.0 | 1.0 | 0.00 | 0.00 | 0.00 | 84 | 1017.3 |
| 20260507225044 | 51 | 47 | 0.0 | 1.0 | 0.00 | 0.00 | 0.00 | 84 | 1017.4 |
| 20260507223545 | 51 | 47 | 0.0 | 1.0 | 0.00 | 0.00 | 0.00 | 84 | 1017.5 |
| 20260507222040 | 51 | 47 | 0.0 | 0.0 | 0.00 | 0.00 | 0.00 | 83 | 1017.5 |
| 20260507220557 | 51 | 47 | 0.0 | 1.0 | 0.00 | 0.00 | 0.00 | 83 | 1017.5 |
| 20260507215036 | 51 | 47 | 0.0 | 1.0 | 0.00 | 0.00 | 0.00 | 82 | 1017.5 |
| 20260507213536 | 51 | 47 | 0.0 | 1.0 | 0.00 | 0.00 | 0.00 | 81 | 1017.5 |
| 20260507212041 | 51 | 47 | 0.0 | 0.0 | 0.00 | 0.00 | 0.00 | 80 | 1017.5 |
| 20260507210552 | 52 | 47 | 0.0 | 0.0 | 0.00 | 0.00 | 0.00 | 80 | 1017.5 |
| 20260507205032 | 52 | 47 | 0.0 | 0.0 | 0.00 | 0.00 | 0.00 | 79 | 1017.5 |
| 20260507202030 | 53 | 47 | 0.0 | 2.0 | 0.00 | 0.00 | 0.00 | 79 | 1017.4 |
| 20260507200530 | 53 | 47 | 1.0 | 5.0 | 0.00 | 0.00 | 0.00 | 79 | 1017.1 |
| 20260507195031 | 53 | 36 | 2.0 | 4.0 | 0.00 | 0.00 | 0.00 | 79 | 1017.0 |
| 20260507193523 | 53 | 58 | 2.0 | 4.0 | 0.00 | 0.00 | 0.00 | 78 | 1017.0 |
| 20260507190523 | 55 | 66 | 2.0 | 7.0 | 0.00 | 0.00 | 0.00 | 75 | 1016.6 |
| 20260507185022 | 56 | 39 | 1.0 | 4.0 | 0.00 | 0.00 | 0.00 | 74 | 1016.2 |
| 20260507183525 | 56 | 140 | 1.0 | 5.0 | 0.00 | 0.00 | 0.00 | 73 | 1016.2 |
| 20260507182015 | 56 | 186 | 1.0 | 6.0 | 0.00 | 0.00 | 0.00 | 73 | 1016.1 |
| 20260507180515 | 56 | 23 | 1.0 | 6.0 | 0.00 | 0.00 | 0.00 | 73 | 1015.7 |
| 20260507175016 | 56 | 235 | 1.0 | 8.0 | 0.00 | 0.00 | 0.00 | 73 | 1015.5 |
| 20260507173518 | 57 | 348 | 2.0 | 9.0 | 0.00 | 0.00 | 0.00 | 73 | 1015.3 |
| 20260507172018 | 57 | 53 | 2.0 | 6.0 | 0.00 | 0.00 | 0.00 | 72 | 1015.1 |
| 20260507165016 | 58 | 104 | 2.0 | 5.0 | 0.00 | 0.00 | 0.00 | 70 | 1015.2 |
| 20260507163518 | 58 | 261 | 1.0 | 3.0 | 0.00 | 0.00 | 0.00 | 66 | 1015.1 |
| 20260507162017 | 59 | 281 | 1.0 | 7.0 | 0.00 | 0.00 | 0.00 | 66 | 1015.1 |
| 20260507160519 | 59 | 92 | 1.0 | 5.0 | 0.00 | 0.00 | 0.00 | 67 | 1014.8 |
| 20260507155016 | 59 | 292 | 2.0 | 8.0 | 0.00 | 0.00 | 0.00 | 68 | 1014.8 |
| 20260507152016 | 61 | 234 | 2.0 | 10.0 | 0.00 | 0.01 | 0.00 | 65 | 1014.8 |
| 20260507150512 | 62 | 90 | 3.0 | 8.0 | 0.00 | 0.09 | 0.00 | 61 | 1014.6 |
| 20260507145013 | 62 | 254 | 2.0 | 7.0 | 0.00 | 0.24 | 0.00 | 64 | 1014.6 |
| 20260507143513 | 60 | 300 | 3.0 | 12.0 | 0.00 | 0.33 | 0.00 | 66 | 1014.7 |
| 20260507140515 | 61 | 161 | 2.0 | 7.0 | 0.00 | 0.33 | 0.00 | 64 | 1014.7 |
| 20260507135012 | 62 | 74 | 3.0 | 8.0 | 0.00 | 0.33 | 0.00 | 63 | 1014.8 |
| 20260507133515 | 62 | 38 | 3.0 | 7.0 | 0.00 | 0.33 | 0.00 | 62 | 1014.8 |
| 20260507130514 | 63 | 315 | 3.0 | 9.0 | 0.00 | 0.33 | 0.00 | 63 | 1014.8 |
| 20260507125013 | 61 | 235 | 3.0 | 12.0 | 0.00 | 0.33 | 0.00 | 66 | 1014.8 |
| 20260507122012 | 62 | 285 | 4.0 | 14.0 | 0.00 | 0.33 | 0.00 | 61 | 1014.7 |
| 20260507120519 | 60 | 290 | 4.0 | 10.0 | 0.00 | 0.33 | 0.00 | 64 | 1014.7 |
| 20260507115012 | 60 | 218 | 3.0 | 11.0 | 0.00 | 0.33 | 0.00 | 65 | 1014.8 |
| 20260507110503 | 60 | 292 | 4.0 | 14.0 | 0.00 | 0.33 | 0.00 | 67 | 1015.1 |
| 20260507105006 | 58 | 232 | 5.0 | 13.0 | 0.00 | 0.33 | 0.00 | 68 | 1015.0 |
| 20260507103505 | 57 | 182 | 4.0 | 13.0 | 0.00 | 0.33 | 0.00 | 68 | 1015.0 |
| 20260507102006 | 57 | 270 | 4.0 | 10.0 | 0.00 | 0.33 | 0.00 | 72 | 1015.0 |
| 20260507100509 | 58 | 306 | 4.0 | 13.0 | 0.00 | 0.33 | 0.00 | 68 | 1015.1 |
| 20260507095004 | 55 | 198 | 3.0 | 12.0 | 0.00 | 0.33 | 0.00 | 73 | 1015.0 |
| 20260507093508 | 54 | 207 | 3.0 | 13.0 | 0.00 | 0.33 | 0.00 | 76 | 1014.8 |
| 20260507092003 | 54 | 270 | 4.0 | 13.0 | 0.00 | 0.33 | 0.00 | 75 | 1014.8 |
| 20260507090507 | 55 | 322 | 4.0 | 11.0 | 0.00 | 0.33 | 0.00 | 72 | 1014.5 |
| 20260507085004 | 56 | 254 | 3.0 | 12.0 | 0.00 | 0.33 | 0.00 | 72 | 1014.4 |
| 20260507082006 | 56 | 229 | 4.0 | 11.0 | 0.00 | 0.33 | 0.00 | 70 | 1014.2 |
| 20260507080510 | 56 | 263 | 4.0 | 13.0 | 0.00 | 0.33 | 0.00 | 72 | 1013.9 |
| 20260507075002 | 55 | 217 | 4.0 | 12.0 | 0.00 | 0.33 | 0.00 | 73 | 1013.9 |
| 20260507073503 | 54 | 246 | 4.0 | 11.0 | 0.00 | 0.33 | 0.00 | 75 | 1014.0 |
| 20260507072445 | 55 | 267 | 4.0 | 13.0 | 0.00 | 0.33 | 0.00 | 73 | 1014.0 |
| 20260507071811 | 54 | 211 | 4.0 | 11.0 | 0.00 | 0.33 | 0.00 | 75 | 1013.7 |
| 20260507065001 | 55 | 234 | 4.0 | 13.0 | 0.00 | 0.33 | 0.00 | 75 | 1013.6 |
| 20260507060501 | 51 | 205 | 3.0 | 9.0 | 0.00 | 0.33 | 0.00 | 82 | 1013.3 |
| 20260507055002 | 50 | 246 | 3.0 | 8.0 | 0.00 | 0.33 | 0.00 | 85 | 1013.1 |
| 20260507053501 | 49 | 254 | 2.0 | 9.0 | 0.00 | 0.33 | 0.00 | 88 | 1013.0 |
| 20260507052006 | 49 | 248 | 2.0 | 6.0 | 0.00 | 0.33 | 0.00 | 89 | 1013.0 |
| 20260507050505 | 48 | 192 | 1.0 | 5.0 | 0.00 | 0.33 | 0.00 | 89 | 1012.9 |
| 20260507045001 | 48 | 222 | 0.0 | 3.0 | 0.00 | 0.33 | 0.00 | 89 | 1012.7 |
| 20260507043503 | 48 | 234 | 1.0 | 3.0 | 0.00 | 0.33 | 0.00 | 89 | 1012.6 |
| 20260507042002 | 48 | 217 | 0.0 | 3.0 | 0.00 | 0.33 | 0.00 | 88 | 1012.3 |
| 20260507040503 | 48 | 217 | 0.0 | 1.0 | 0.00 | 0.33 | 0.00 | 87 | 1012.3 |
| 20260507035001 | 48 | 217 | 0.0 | 1.0 | 0.00 | 0.33 | 0.00 | 87 | 1012.2 |
| 20260507033507 | 48 | 217 | 0.0 | 1.0 | 0.00 | 0.33 | 0.00 | 87 | 1012.2 |
| 20260507032006 | 48 | 217 | 0.0 | 1.0 | 0.00 | 0.33 | 0.00 | 87 | 1012.3 |
| 20260507030503 | 48 | 217 | 0.0 | 2.0 | 0.00 | 0.33 | 0.00 | 87 | 1012.4 |
| 20260507025005 | 48 | 251 | 0.0 | 2.0 | 0.00 | 0.33 | 0.00 | 86 | 1012.2 |
| 20260507023458 | 48 | 246 | 1.0 | 4.0 | 0.00 | 0.33 | 0.00 | 87 | 1011.9 |
| 20260507021958 | 48 | 205 | 2.0 | 4.0 | 0.00 | 0.33 | 0.00 | 87 | 1011.9 |
| 20260507020457 | 48 | 214 | 2.0 | 4.0 | 0.00 | 0.33 | 0.00 | 87 | 1011.8 |
| 20260507014955 | 48 | 218 | 1.0 | 6.0 | 0.00 | 0.33 | 0.00 | 87 | 1011.5 |
| 20260507013455 | 48 | 178 | 2.0 | 5.0 | 0.00 | 0.33 | 0.00 | 87 | 1011.5 |